Hlavní strana
METAR-TAF:

METAR-TAF

Letiště :

Dušanbe, Tádžikistán

zeměpisná šířka: 38-33N, zeměpisná délka: 068-47E, výška: 803 m

Aktuální stav počasí

Zpráva byla vytvořena před 25 minutami, v 23:30 UTC
Severovýchodní vítr 8 kt
Teplota 22°C
Vlhkost vzduchu 41%
Tlak 1010 hPa
Viditelnost 10 km a více

METAR: UTDD 212330Z 05004MPS 9999 NSC 22/08 Q1010 R09/D NOSIG RMK QFE690/0920

Čas: 04:55 (23:55 UTC)

Předpověď počasí

Zpráva byla vytvořena před 2 hodinami a 55 minutami, v 21:00 UTC
Předpověď platná od 21 v 22 UTC do 22 v 10 UTC
vítr z různých směrů 4 kt
Viditelnost: 6000 m
Skoro jasno ve výšce 6600 ft, Cumulonimbus.
Polojasno ve výšce 15000 ft
Dočasný
od 21 v 22 UTC do 22 v 07 UTC
Východoseverovýchodní vítr 10 kt

TAF: UTDD 212100Z 2122/2210 VRB02MPS 6000 FEW066CB SCT150 TEMPO 2122/2207 07005MPS

Stav a předpovědi počasí z více než 4 000 letišť (zprávy METAR a TAF).

Červené a žluté tečky na mapě představují dostupné meteorologické stanice.

Když kurzor umístíte na tečku, zobrazí se název stanice.

Pak kliknutím zobrazíte stav a předpověď počasí.

Chcete-li změnit mapu, kliknutím na zelené tlačítko se znaménkem +mapu přiblížíte, kliknutím na zelené tlačítko se znaménkem – mapu oddálíte a kliknutím na zelené šipky přejdete na sousední mapy.


METAR-TAF: